sensor_id;sensor_type;location;lat;lon;timestamp;P1;durP1;ratioP1;P2;durP2;ratioP2
14603;SDS011;7388;51.078;13.740;2022-12-18T00:02:01;33.50;;;18.57;;
14603;SDS011;7388;51.078;13.740;2022-12-18T00:04:27;35.83;;;18.10;;
14603;SDS011;7388;51.078;13.740;2022-12-18T00:06:53;32.83;;;19.17;;
14603;SDS011;7388;51.078;13.740;2022-12-18T00:09:19;30.10;;;17.58;;
14603;SDS011;7388;51.078;13.740;2022-12-18T00:11:45;40.92;;;19.73;;
14603;SDS011;7388;51.078;13.740;2022-12-18T00:14:12;30.07;;;17.13;;
14603;SDS011;7388;51.078;13.740;2022-12-18T00:16:39;30.15;;;17.15;;
14603;SDS011;7388;51.078;13.740;2022-12-18T00:19:05;33.33;;;17.48;;
14603;SDS011;7388;51.078;13.740;2022-12-18T00:21:32;28.02;;;17.63;;
14603;SDS011;7388;51.078;13.740;2022-12-18T00:23:59;34.53;;;19.13;;
14603;SDS011;7388;51.078;13.740;2022-12-18T00:26:26;34.28;;;18.20;;
14603;SDS011;7388;51.078;13.740;2022-12-18T00:29:00;30.77;;;17.25;;
14603;SDS011;7388;51.078;13.740;2022-12-18T00:31:28;30.52;;;17.40;;
14603;SDS011;7388;51.078;13.740;2022-12-18T00:33:54;37.37;;;19.43;;
14603;SDS011;7388;51.078;13.740;2022-12-18T00:36:22;29.75;;;17.88;;
14603;SDS011;7388;51.078;13.740;2022-12-18T00:38:49;35.22;;;18.38;;
14603;SDS011;7388;51.078;13.740;2022-12-18T00:41:16;26.38;;;17.25;;
14603;SDS011;7388;51.078;13.740;2022-12-18T00:44:03;28.25;;;18.00;;
14603;SDS011;7388;51.078;13.740;2022-12-18T00:46:29;26.27;;;17.35;;
14603;SDS011;7388;51.078;13.740;2022-12-18T00:48:56;25.13;;;16.92;;
14603;SDS011;7388;51.078;13.740;2022-12-18T00:51:21;34.07;;;17.67;;
14603;SDS011;7388;51.078;13.740;2022-12-18T00:53:47;31.33;;;18.40;;
14603;SDS011;7388;51.078;13.740;2022-12-18T00:56:13;28.40;;;18.90;;
14603;SDS011;7388;51.078;13.740;2022-12-18T00:58:39;29.50;;;15.90;;
14603;SDS011;7388;51.078;13.740;2022-12-18T01:01:05;28.83;;;17.57;;
14603;SDS011;7388;51.078;13.740;2022-12-18T01:03:30;28.13;;;16.80;;
14603;SDS011;7388;51.078;13.740;2022-12-18T01:05:56;32.90;;;16.63;;
14603;SDS011;7388;51.078;13.740;2022-12-18T01:08:22;31.50;;;16.77;;
14603;SDS011;7388;51.078;13.740;2022-12-18T01:10:48;32.50;;;17.80;;
14603;SDS011;7388;51.078;13.740;2022-12-18T01:13:14;31.53;;;15.87;;
14603;SDS011;7388;51.078;13.740;2022-12-18T01:15:39;41.13;;;20.00;;
14603;SDS011;7388;51.078;13.740;2022-12-18T01:18:06;33.35;;;17.80;;
14603;SDS011;7388;51.078;13.740;2022-12-18T01:20:32;30.50;;;17.60;;
14603;SDS011;7388;51.078;13.740;2022-12-18T01:22:57;30.53;;;18.17;;
14603;SDS011;7388;51.078;13.740;2022-12-18T01:25:23;31.97;;;17.13;;
14603;SDS011;7388;51.078;13.740;2022-12-18T01:27:50;31.77;;;16.73;;
14603;SDS011;7388;51.078;13.740;2022-12-18T01:30:15;28.47;;;17.83;;
14603;SDS011;7388;51.078;13.740;2022-12-18T01:32:41;30.33;;;17.40;;
14603;SDS011;7388;51.078;13.740;2022-12-18T01:35:07;26.70;;;16.17;;
14603;SDS011;7388;51.078;13.740;2022-12-18T01:37:33;31.40;;;17.13;;
14603;SDS011;7388;51.078;13.740;2022-12-18T01:39:58;30.60;;;18.63;;
14603;SDS011;7388;51.078;13.740;2022-12-18T01:42:24;33.07;;;19.60;;
14603;SDS011;7388;51.078;13.740;2022-12-18T01:45:00;39.72;;;17.83;;
14603;SDS011;7388;51.078;13.740;2022-12-18T01:50:20;37.20;;;18.92;;
14603;SDS011;7388;51.078;13.740;2022-12-18T01:53:17;25.08;;;14.45;;
14603;SDS011;7388;51.078;13.740;2022-12-18T01:55:45;28.70;;;17.50;;
14603;SDS011;7388;51.078;13.740;2022-12-18T01:58:13;31.25;;;16.45;;
14603;SDS011;7388;51.078;13.740;2022-12-18T02:00:39;31.08;;;15.60;;
14603;SDS011;7388;51.078;13.740;2022-12-18T02:03:05;23.23;;;13.10;;
14603;SDS011;7388;51.078;13.740;2022-12-18T02:05:38;34.45;;;18.60;;
14603;SDS011;7388;51.078;13.740;2022-12-18T02:08:26;25.63;;;14.93;;
14603;SDS011;7388;51.078;13.740;2022-12-18T02:13:41;28.67;;;17.42;;
14603;SDS011;7388;51.078;13.740;2022-12-18T02:16:24;30.48;;;14.80;;
14603;SDS011;7388;51.078;13.740;2022-12-18T02:19:17;25.35;;;16.15;;
14603;SDS011;7388;51.078;13.740;2022-12-18T02:21:57;29.67;;;16.75;;
14603;SDS011;7388;51.078;13.740;2022-12-18T02:24:42;35.40;;;18.17;;
14603;SDS011;7388;51.078;13.740;2022-12-18T02:27:15;29.58;;;16.00;;
14603;SDS011;7388;51.078;13.740;2022-12-18T02:29:44;30.88;;;16.17;;
14603;SDS011;7388;51.078;13.740;2022-12-18T02:32:16;31.63;;;16.88;;
14603;SDS011;7388;51.078;13.740;2022-12-18T02:34:45;23.73;;;13.95;;
14603;SDS011;7388;51.078;13.740;2022-12-18T02:37:12;31.55;;;16.10;;
14603;SDS011;7388;51.078;13.740;2022-12-18T02:39:41;37.00;;;16.75;;
14603;SDS011;7388;51.078;13.740;2022-12-18T02:42:09;24.33;;;15.15;;
14603;SDS011;7388;51.078;13.740;2022-12-18T02:44:46;32.85;;;16.52;;
14603;SDS011;7388;51.078;13.740;2022-12-18T02:47:14;42.28;;;17.85;;
14603;SDS011;7388;51.078;13.740;2022-12-18T02:55:15;28.80;;;16.52;;
14603;SDS011;7388;51.078;13.740;2022-12-18T03:00:31;32.33;;;17.27;;
14603;SDS011;7388;51.078;13.740;2022-12-18T03:03:11;37.33;;;15.73;;
14603;SDS011;7388;51.078;13.740;2022-12-18T03:08:21;33.47;;;16.83;;
14603;SDS011;7388;51.078;13.740;2022-12-18T03:10:58;32.80;;;18.55;;
14603;SDS011;7388;51.078;13.740;2022-12-18T03:16:05;25.65;;;14.95;;
14603;SDS011;7388;51.078;13.740;2022-12-18T03:18:36;38.13;;;17.20;;
14603;SDS011;7388;51.078;13.740;2022-12-18T03:21:07;33.53;;;16.90;;
14603;SDS011;7388;51.078;13.740;2022-12-18T03:23:38;26.40;;;15.52;;
14603;SDS011;7388;51.078;13.740;2022-12-18T03:26:09;26.60;;;15.60;;
14603;SDS011;7388;51.078;13.740;2022-12-18T03:28:39;23.08;;;14.10;;
14603;SDS011;7388;51.078;13.740;2022-12-18T03:31:11;29.90;;;17.52;;
14603;SDS011;7388;51.078;13.740;2022-12-18T03:34:01;22.88;;;14.23;;
14603;SDS011;7388;51.078;13.740;2022-12-18T03:36:26;34.20;;;14.90;;
14603;SDS011;7388;51.078;13.740;2022-12-18T03:38:58;29.60;;;16.60;;
14603;SDS011;7388;51.078;13.740;2022-12-18T03:44:09;27.23;;;14.10;;
14603;SDS011;7388;51.078;13.740;2022-12-18T03:47:13;26.45;;;14.43;;
14603;SDS011;7388;51.078;13.740;2022-12-18T03:49:49;28.73;;;13.80;;
14603;SDS011;7388;51.078;13.740;2022-12-18T03:52:33;23.33;;;14.18;;
14603;SDS011;7388;51.078;13.740;2022-12-18T03:55:03;23.30;;;12.95;;
14603;SDS011;7388;51.078;13.740;2022-12-18T03:57:32;25.98;;;13.45;;
14603;SDS011;7388;51.078;13.740;2022-12-18T04:00:00;22.13;;;14.43;;
14603;SDS011;7388;51.078;13.740;2022-12-18T04:02:31;27.05;;;12.40;;
14603;SDS011;7388;51.078;13.740;2022-12-18T04:05:00;30.48;;;14.68;;
14603;SDS011;7388;51.078;13.740;2022-12-18T04:07:29;25.35;;;14.75;;
14603;SDS011;7388;51.078;13.740;2022-12-18T04:09:56;24.83;;;13.50;;
14603;SDS011;7388;51.078;13.740;2022-12-18T04:12:25;23.27;;;14.32;;
14603;SDS011;7388;51.078;13.740;2022-12-18T04:14:53;28.67;;;14.13;;
14603;SDS011;7388;51.078;13.740;2022-12-18T04:17:19;26.23;;;13.60;;
14603;SDS011;7388;51.078;13.740;2022-12-18T04:19:45;26.98;;;14.57;;
14603;SDS011;7388;51.078;13.740;2022-12-18T04:22:11;24.58;;;13.25;;
14603;SDS011;7388;51.078;13.740;2022-12-18T04:24:37;21.70;;;13.00;;
14603;SDS011;7388;51.078;13.740;2022-12-18T04:27:03;21.07;;;11.97;;
14603;SDS011;7388;51.078;13.740;2022-12-18T04:29:30;30.02;;;14.27;;
14603;SDS011;7388;51.078;13.740;2022-12-18T04:31:55;33.53;;;12.30;;
14603;SDS011;7388;51.078;13.740;2022-12-18T04:34:21;29.07;;;12.63;;
14603;SDS011;7388;51.078;13.740;2022-12-18T04:36:47;24.57;;;12.00;;
14603;SDS011;7388;51.078;13.740;2022-12-18T04:39:13;23.67;;;12.77;;
14603;SDS011;7388;51.078;13.740;2022-12-18T04:41:39;25.83;;;13.13;;
14603;SDS011;7388;51.078;13.740;2022-12-18T04:44:06;18.65;;;11.63;;
14603;SDS011;7388;51.078;13.740;2022-12-18T04:46:32;22.80;;;14.43;;
14603;SDS011;7388;51.078;13.740;2022-12-18T04:48:57;28.77;;;14.20;;
14603;SDS011;7388;51.078;13.740;2022-12-18T04:51:23;30.87;;;13.30;;
14603;SDS011;7388;51.078;13.740;2022-12-18T04:53:49;26.17;;;12.90;;
14603;SDS011;7388;51.078;13.740;2022-12-18T04:56:15;23.30;;;12.30;;
14603;SDS011;7388;51.078;13.740;2022-12-18T04:58:41;18.77;;;12.23;;
14603;SDS011;7388;51.078;13.740;2022-12-18T05:01:09;21.77;;;12.40;;
14603;SDS011;7388;51.078;13.740;2022-12-18T05:03:36;26.13;;;12.93;;
14603;SDS011;7388;51.078;13.740;2022-12-18T05:06:02;28.50;;;13.10;;
14603;SDS011;7388;51.078;13.740;2022-12-18T05:08:29;23.65;;;11.65;;
14603;SDS011;7388;51.078;13.740;2022-12-18T05:11:04;26.23;;;13.43;;
14603;SDS011;7388;51.078;13.740;2022-12-18T05:13:40;26.40;;;13.13;;
14603;SDS011;7388;51.078;13.740;2022-12-18T05:16:07;20.48;;;13.88;;
14603;SDS011;7388;51.078;13.740;2022-12-18T05:18:33;24.80;;;12.07;;
14603;SDS011;7388;51.078;13.740;2022-12-18T05:20:59;24.35;;;12.18;;
14603;SDS011;7388;51.078;13.740;2022-12-18T05:23:26;21.38;;;12.23;;
14603;SDS011;7388;51.078;13.740;2022-12-18T05:25:53;27.23;;;11.90;;
14603;SDS011;7388;51.078;13.740;2022-12-18T05:28:20;26.85;;;12.48;;
14603;SDS011;7388;51.078;13.740;2022-12-18T05:30:51;22.42;;;11.20;;
14603;SDS011;7388;51.078;13.740;2022-12-18T05:33:18;26.48;;;13.75;;
14603;SDS011;7388;51.078;13.740;2022-12-18T05:35:55;18.60;;;11.20;;
14603;SDS011;7388;51.078;13.740;2022-12-18T05:38:23;22.13;;;11.82;;
14603;SDS011;7388;51.078;13.740;2022-12-18T05:40:50;20.45;;;12.50;;
14603;SDS011;7388;51.078;13.740;2022-12-18T05:43:17;20.90;;;10.88;;
14603;SDS011;7388;51.078;13.740;2022-12-18T05:45:44;21.40;;;11.65;;
14603;SDS011;7388;51.078;13.740;2022-12-18T05:48:13;20.13;;;12.37;;
14603;SDS011;7388;51.078;13.740;2022-12-18T05:50:40;20.42;;;10.70;;
14603;SDS011;7388;51.078;13.740;2022-12-18T05:53:07;25.45;;;12.60;;
14603;SDS011;7388;51.078;13.740;2022-12-18T05:55:36;29.55;;;10.15;;
14603;SDS011;7388;51.078;13.740;2022-12-18T05:58:04;22.58;;;11.27;;
14603;SDS011;7388;51.078;13.740;2022-12-18T06:00:32;29.35;;;11.25;;
14603;SDS011;7388;51.078;13.740;2022-12-18T06:03:00;15.38;;;10.40;;
14603;SDS011;7388;51.078;13.740;2022-12-18T06:05:26;23.80;;;11.95;;
14603;SDS011;7388;51.078;13.740;2022-12-18T06:07:52;17.33;;;8.50;;
14603;SDS011;7388;51.078;13.740;2022-12-18T06:10:18;23.00;;;13.23;;
14603;SDS011;7388;51.078;13.740;2022-12-18T06:12:44;18.43;;;10.13;;
14603;SDS011;7388;51.078;13.740;2022-12-18T06:15:10;22.77;;;11.00;;
14603;SDS011;7388;51.078;13.740;2022-12-18T06:17:36;21.17;;;11.17;;
14603;SDS011;7388;51.078;13.740;2022-12-18T06:20:03;26.60;;;12.52;;
14603;SDS011;7388;51.078;13.740;2022-12-18T06:22:30;22.25;;;11.40;;
14603;SDS011;7388;51.078;13.740;2022-12-18T06:24:57;23.25;;;11.60;;
14603;SDS011;7388;51.078;13.740;2022-12-18T06:27:22;19.33;;;11.10;;
14603;SDS011;7388;51.078;13.740;2022-12-18T06:29:48;16.03;;;11.13;;
14603;SDS011;7388;51.078;13.740;2022-12-18T06:32:14;26.57;;;10.40;;
14603;SDS011;7388;51.078;13.740;2022-12-18T06:34:40;21.37;;;12.30;;
14603;SDS011;7388;51.078;13.740;2022-12-18T06:37:05;19.10;;;10.17;;
14603;SDS011;7388;51.078;13.740;2022-12-18T06:39:31;16.87;;;10.17;;
14603;SDS011;7388;51.078;13.740;2022-12-18T06:41:57;24.60;;;11.47;;
14603;SDS011;7388;51.078;13.740;2022-12-18T06:44:22;24.87;;;13.30;;
14603;SDS011;7388;51.078;13.740;2022-12-18T06:46:48;25.40;;;13.40;;
14603;SDS011;7388;51.078;13.740;2022-12-18T06:49:14;22.53;;;10.30;;
14603;SDS011;7388;51.078;13.740;2022-12-18T06:51:41;21.27;;;11.50;;
14603;SDS011;7388;51.078;13.740;2022-12-18T06:54:07;17.30;;;11.85;;
14603;SDS011;7388;51.078;13.740;2022-12-18T06:56:33;21.70;;;10.57;;
14603;SDS011;7388;51.078;13.740;2022-12-18T06:58:59;18.50;;;10.20;;
14603;SDS011;7388;51.078;13.740;2022-12-18T07:01:24;25.50;;;11.97;;
14603;SDS011;7388;51.078;13.740;2022-12-18T07:03:54;16.30;;;10.03;;
14603;SDS011;7388;51.078;13.740;2022-12-18T07:06:21;15.63;;;9.25;;
14603;SDS011;7388;51.078;13.740;2022-12-18T07:08:48;25.05;;;10.57;;
14603;SDS011;7388;51.078;13.740;2022-12-18T07:11:15;20.15;;;11.38;;
14603;SDS011;7388;51.078;13.740;2022-12-18T07:13:42;21.00;;;10.98;;
14603;SDS011;7388;51.078;13.740;2022-12-18T07:16:09;20.42;;;10.50;;
14603;SDS011;7388;51.078;13.740;2022-12-18T07:18:43;14.93;;;9.60;;
14603;SDS011;7388;51.078;13.740;2022-12-18T07:21:10;21.67;;;12.65;;
14603;SDS011;7388;51.078;13.740;2022-12-18T07:23:38;15.07;;;9.27;;
14603;SDS011;7388;51.078;13.740;2022-12-18T07:26:04;16.03;;;9.73;;
14603;SDS011;7388;51.078;13.740;2022-12-18T07:28:35;26.40;;;11.13;;
14603;SDS011;7388;51.078;13.740;2022-12-18T07:31:20;15.13;;;9.38;;
14603;SDS011;7388;51.078;13.740;2022-12-18T07:33:47;14.50;;;9.02;;
14603;SDS011;7388;51.078;13.740;2022-12-18T07:36:14;17.23;;;10.75;;
14603;SDS011;7388;51.078;13.740;2022-12-18T07:38:39;18.13;;;9.85;;
14603;SDS011;7388;51.078;13.740;2022-12-18T07:41:06;15.68;;;9.00;;
14603;SDS011;7388;51.078;13.740;2022-12-18T07:43:34;18.63;;;12.18;;
14603;SDS011;7388;51.078;13.740;2022-12-18T07:46:00;27.58;;;12.63;;
14603;SDS011;7388;51.078;13.740;2022-12-18T07:48:30;16.88;;;9.25;;
14603;SDS011;7388;51.078;13.740;2022-12-18T07:50:59;19.17;;;10.80;;
14603;SDS011;7388;51.078;13.740;2022-12-18T07:53:26;20.60;;;11.48;;
14603;SDS011;7388;51.078;13.740;2022-12-18T07:55:56;21.15;;;12.32;;
14603;SDS011;7388;51.078;13.740;2022-12-18T07:58:26;15.80;;;11.48;;
14603;SDS011;7388;51.078;13.740;2022-12-18T08:00:51;24.00;;;11.60;;
14603;SDS011;7388;51.078;13.740;2022-12-18T08:03:18;22.93;;;13.70;;
14603;SDS011;7388;51.078;13.740;2022-12-18T08:05:44;20.55;;;11.68;;
14603;SDS011;7388;51.078;13.740;2022-12-18T08:08:09;25.43;;;14.73;;
14603;SDS011;7388;51.078;13.740;2022-12-18T08:10:36;23.52;;;12.40;;
14603;SDS011;7388;51.078;13.740;2022-12-18T08:13:02;25.50;;;14.80;;
14603;SDS011;7388;51.078;13.740;2022-12-18T08:15:28;25.20;;;14.57;;
14603;SDS011;7388;51.078;13.740;2022-12-18T08:17:57;30.40;;;15.37;;
14603;SDS011;7388;51.078;13.740;2022-12-18T08:20:22;30.58;;;18.42;;
14603;SDS011;7388;51.078;13.740;2022-12-18T08:22:48;34.00;;;22.03;;
14603;SDS011;7388;51.078;13.740;2022-12-18T08:25:14;42.30;;;23.67;;
14603;SDS011;7388;51.078;13.740;2022-12-18T08:27:39;42.47;;;22.07;;
14603;SDS011;7388;51.078;13.740;2022-12-18T08:30:05;45.23;;;20.63;;
14603;SDS011;7388;51.078;13.740;2022-12-18T08:32:32;29.17;;;16.92;;
14603;SDS011;7388;51.078;13.740;2022-12-18T08:34:58;33.67;;;19.03;;
14603;SDS011;7388;51.078;13.740;2022-12-18T08:37:26;28.08;;;15.98;;
14603;SDS011;7388;51.078;13.740;2022-12-18T08:39:52;36.27;;;16.17;;
14603;SDS011;7388;51.078;13.740;2022-12-18T08:42:18;27.80;;;16.10;;
14603;SDS011;7388;51.078;13.740;2022-12-18T08:45:02;33.70;;;17.75;;
14603;SDS011;7388;51.078;13.740;2022-12-18T08:47:29;32.55;;;17.15;;
14603;SDS011;7388;51.078;13.740;2022-12-18T08:49:54;31.13;;;18.20;;
14603;SDS011;7388;51.078;13.740;2022-12-18T08:52:20;24.10;;;16.67;;
14603;SDS011;7388;51.078;13.740;2022-12-18T08:54:46;25.83;;;16.23;;
14603;SDS011;7388;51.078;13.740;2022-12-18T08:57:11;29.40;;;16.13;;
14603;SDS011;7388;51.078;13.740;2022-12-18T08:59:37;29.07;;;17.17;;
14603;SDS011;7388;51.078;13.740;2022-12-18T09:02:03;25.60;;;15.53;;
14603;SDS011;7388;51.078;13.740;2022-12-18T09:04:28;25.63;;;17.20;;
14603;SDS011;7388;51.078;13.740;2022-12-18T09:06:54;29.70;;;17.90;;
14603;SDS011;7388;51.078;13.740;2022-12-18T09:09:20;34.13;;;18.87;;
14603;SDS011;7388;51.078;13.740;2022-12-18T09:11:46;30.85;;;17.90;;
14603;SDS011;7388;51.078;13.740;2022-12-18T09:14:11;28.67;;;17.60;;
14603;SDS011;7388;51.078;13.740;2022-12-18T09:16:37;22.10;;;15.47;;
14603;SDS011;7388;51.078;13.740;2022-12-18T09:19:03;32.43;;;17.87;;
14603;SDS011;7388;51.078;13.740;2022-12-18T09:21:31;28.15;;;16.10;;
14603;SDS011;7388;51.078;13.740;2022-12-18T09:23:59;25.02;;;14.93;;
14603;SDS011;7388;51.078;13.740;2022-12-18T09:26:25;30.52;;;19.08;;
14603;SDS011;7388;51.078;13.740;2022-12-18T09:28:52;31.83;;;17.15;;
14603;SDS011;7388;51.078;13.740;2022-12-18T09:31:19;26.48;;;17.02;;
14603;SDS011;7388;51.078;13.740;2022-12-18T09:33:46;26.88;;;17.05;;
14603;SDS011;7388;51.078;13.740;2022-12-18T09:36:13;26.73;;;16.23;;
14603;SDS011;7388;51.078;13.740;2022-12-18T09:38:40;30.17;;;15.68;;
14603;SDS011;7388;51.078;13.740;2022-12-18T09:43:55;25.90;;;17.35;;
14603;SDS011;7388;51.078;13.740;2022-12-18T09:46:29;31.17;;;17.30;;
14603;SDS011;7388;51.078;13.740;2022-12-18T09:48:59;29.42;;;17.00;;
14603;SDS011;7388;51.078;13.740;2022-12-18T09:51:32;27.08;;;17.10;;
14603;SDS011;7388;51.078;13.740;2022-12-18T09:54:14;30.75;;;17.88;;
14603;SDS011;7388;51.078;13.740;2022-12-18T09:56:45;33.75;;;18.65;;
14603;SDS011;7388;51.078;13.740;2022-12-18T09:59:24;30.63;;;16.87;;
14603;SDS011;7388;51.078;13.740;2022-12-18T10:01:52;27.45;;;16.95;;
14603;SDS011;7388;51.078;13.740;2022-12-18T10:04:18;35.47;;;16.90;;
14603;SDS011;7388;51.078;13.740;2022-12-18T10:06:49;25.70;;;15.83;;
14603;SDS011;7388;51.078;13.740;2022-12-18T10:22:36;28.40;;;17.08;;
14603;SDS011;7388;51.078;13.740;2022-12-18T10:25:17;27.23;;;15.93;;
14603;SDS011;7388;51.078;13.740;2022-12-18T10:27:43;27.25;;;15.82;;
14603;SDS011;7388;51.078;13.740;2022-12-18T10:30:16;26.27;;;14.20;;
14603;SDS011;7388;51.078;13.740;2022-12-18T10:32:43;26.63;;;16.45;;
14603;SDS011;7388;51.078;13.740;2022-12-18T10:35:20;24.20;;;13.77;;
14603;SDS011;7388;51.078;13.740;2022-12-18T10:38:04;22.95;;;14.70;;
14603;SDS011;7388;51.078;13.740;2022-12-18T10:40:31;30.40;;;17.75;;
14603;SDS011;7388;51.078;13.740;2022-12-18T10:43:04;26.30;;;14.85;;
14603;SDS011;7388;51.078;13.740;2022-12-18T10:45:37;27.40;;;18.15;;
14603;SDS011;7388;51.078;13.740;2022-12-18T10:58:13;23.55;;;15.60;;
14603;SDS011;7388;51.078;13.740;2022-12-18T11:00:41;25.17;;;16.17;;
14603;SDS011;7388;51.078;13.740;2022-12-18T11:03:29;29.43;;;16.60;;
14603;SDS011;7388;51.078;13.740;2022-12-18T11:06:04;32.83;;;16.75;;
14603;SDS011;7388;51.078;13.740;2022-12-18T11:08:35;32.88;;;18.48;;
14603;SDS011;7388;51.078;13.740;2022-12-18T11:11:02;24.98;;;15.35;;
14603;SDS011;7388;51.078;13.740;2022-12-18T11:13:29;29.95;;;16.30;;
14603;SDS011;7388;51.078;13.740;2022-12-18T11:15:57;30.00;;;17.00;;
14603;SDS011;7388;51.078;13.740;2022-12-18T11:18:33;30.65;;;16.27;;
14603;SDS011;7388;51.078;13.740;2022-12-18T11:21:05;23.83;;;14.55;;
14603;SDS011;7388;51.078;13.740;2022-12-18T11:23:32;34.15;;;16.38;;
14603;SDS011;7388;51.078;13.740;2022-12-18T11:26:00;28.23;;;15.77;;
14603;SDS011;7388;51.078;13.740;2022-12-18T11:28:29;26.75;;;17.05;;
14603;SDS011;7388;51.078;13.740;2022-12-18T11:33:37;26.13;;;16.38;;
14603;SDS011;7388;51.078;13.740;2022-12-18T11:36:07;29.48;;;17.83;;
14603;SDS011;7388;51.078;13.740;2022-12-18T11:38:37;28.33;;;15.90;;
14603;SDS011;7388;51.078;13.740;2022-12-18T11:41:21;37.67;;;19.60;;
14603;SDS011;7388;51.078;13.740;2022-12-18T11:44:24;25.35;;;15.68;;
14603;SDS011;7388;51.078;13.740;2022-12-18T11:47:08;29.35;;;15.88;;
14603;SDS011;7388;51.078;13.740;2022-12-18T11:49:38;26.55;;;16.23;;
14603;SDS011;7388;51.078;13.740;2022-12-18T11:52:16;27.00;;;16.13;;
14603;SDS011;7388;51.078;13.740;2022-12-18T11:54:52;27.67;;;16.35;;
14603;SDS011;7388;51.078;13.740;2022-12-18T12:05:24;30.75;;;15.82;;
14603;SDS011;7388;51.078;13.740;2022-12-18T12:08:15;26.50;;;16.00;;
14603;SDS011;7388;51.078;13.740;2022-12-18T12:11:02;36.47;;;17.23;;
14603;SDS011;7388;51.078;13.740;2022-12-18T12:16:37;27.23;;;16.08;;
14603;SDS011;7388;51.078;13.740;2022-12-18T12:25:02;25.90;;;15.32;;
14603;SDS011;7388;51.078;13.740;2022-12-18T12:33:00;26.65;;;14.88;;
14603;SDS011;7388;51.078;13.740;2022-12-18T12:41:05;31.98;;;16.08;;
14603;SDS011;7388;51.078;13.740;2022-12-18T12:43:55;24.10;;;15.60;;
14603;SDS011;7388;51.078;13.740;2022-12-18T12:46:25;27.65;;;13.95;;
14603;SDS011;7388;51.078;13.740;2022-12-18T12:48:55;23.90;;;15.45;;
14603;SDS011;7388;51.078;13.740;2022-12-18T12:51:27;27.90;;;15.73;;
14603;SDS011;7388;51.078;13.740;2022-12-18T12:53:57;33.15;;;18.42;;
14603;SDS011;7388;51.078;13.740;2022-12-18T12:56:25;23.80;;;15.50;;
14603;SDS011;7388;51.078;13.740;2022-12-18T13:04:52;29.13;;;15.32;;
14603;SDS011;7388;51.078;13.740;2022-12-18T13:07:28;22.42;;;14.30;;
14603;SDS011;7388;51.078;13.740;2022-12-18T13:12:56;21.30;;;12.70;;
14603;SDS011;7388;51.078;13.740;2022-12-18T13:15:33;26.50;;;15.40;;
14603;SDS011;7388;51.078;13.740;2022-12-18T13:18:11;21.52;;;14.05;;
14603;SDS011;7388;51.078;13.740;2022-12-18T13:23:19;29.55;;;16.85;;
14603;SDS011;7388;51.078;13.740;2022-12-18T13:25:58;29.75;;;15.00;;
14603;SDS011;7388;51.078;13.740;2022-12-18T13:31:13;34.72;;;16.65;;
14603;SDS011;7388;51.078;13.740;2022-12-18T13:33:41;34.58;;;15.68;;
14603;SDS011;7388;51.078;13.740;2022-12-18T13:36:29;28.75;;;15.05;;
14603;SDS011;7388;51.078;13.740;2022-12-18T13:41:42;34.53;;;15.18;;
14603;SDS011;7388;51.078;13.740;2022-12-18T13:46:48;24.50;;;15.70;;
14603;SDS011;7388;51.078;13.740;2022-12-18T13:52:02;27.67;;;13.90;;
14603;SDS011;7388;51.078;13.740;2022-12-18T13:54:39;29.48;;;15.00;;
14603;SDS011;7388;51.078;13.740;2022-12-18T13:57:24;37.60;;;14.65;;
14603;SDS011;7388;51.078;13.740;2022-12-18T13:59:57;29.00;;;17.20;;
14603;SDS011;7388;51.078;13.740;2022-12-18T14:02:25;21.80;;;14.48;;
14603;SDS011;7388;51.078;13.740;2022-12-18T14:04:52;23.63;;;13.93;;
14603;SDS011;7388;51.078;13.740;2022-12-18T14:07:19;29.48;;;13.77;;
14603;SDS011;7388;51.078;13.740;2022-12-18T14:09:54;25.65;;;14.57;;
14603;SDS011;7388;51.078;13.740;2022-12-18T14:12:26;19.90;;;11.88;;
14603;SDS011;7388;51.078;13.740;2022-12-18T14:17:59;29.33;;;12.93;;
14603;SDS011;7388;51.078;13.740;2022-12-18T14:20:29;22.92;;;13.55;;
14603;SDS011;7388;51.078;13.740;2022-12-18T14:22:57;19.90;;;12.18;;
14603;SDS011;7388;51.078;13.740;2022-12-18T14:25:28;23.38;;;12.45;;
14603;SDS011;7388;51.078;13.740;2022-12-18T14:30:28;20.58;;;10.60;;
14603;SDS011;7388;51.078;13.740;2022-12-18T14:33:08;19.48;;;11.90;;
14603;SDS011;7388;51.078;13.740;2022-12-18T14:35:59;25.08;;;12.32;;
14603;SDS011;7388;51.078;13.740;2022-12-18T14:38:30;24.63;;;13.52;;
14603;SDS011;7388;51.078;13.740;2022-12-18T14:40:58;20.17;;;12.18;;
14603;SDS011;7388;51.078;13.740;2022-12-18T14:43:32;18.40;;;11.57;;
14603;SDS011;7388;51.078;13.740;2022-12-18T14:46:00;27.55;;;14.43;;
14603;SDS011;7388;51.078;13.740;2022-12-18T14:48:33;26.35;;;13.88;;
14603;SDS011;7388;51.078;13.740;2022-12-18T14:53:47;25.17;;;13.95;;
14603;SDS011;7388;51.078;13.740;2022-12-18T14:56:19;15.85;;;9.95;;
14603;SDS011;7388;51.078;13.740;2022-12-18T14:58:48;18.65;;;13.23;;
14603;SDS011;7388;51.078;13.740;2022-12-18T15:01:20;34.15;;;14.40;;
14603;SDS011;7388;51.078;13.740;2022-12-18T15:03:49;24.67;;;11.88;;
14603;SDS011;7388;51.078;13.740;2022-12-18T15:06:16;23.58;;;12.38;;
14603;SDS011;7388;51.078;13.740;2022-12-18T15:08:52;22.65;;;11.93;;
14603;SDS011;7388;51.078;13.740;2022-12-18T15:11:25;22.20;;;12.93;;
14603;SDS011;7388;51.078;13.740;2022-12-18T15:16:54;18.92;;;11.95;;
14603;SDS011;7388;51.078;13.740;2022-12-18T15:19:26;30.40;;;14.38;;
14603;SDS011;7388;51.078;13.740;2022-12-18T15:21:58;27.15;;;13.75;;
14603;SDS011;7388;51.078;13.740;2022-12-18T15:24:26;28.50;;;13.73;;
14603;SDS011;7388;51.078;13.740;2022-12-18T15:26:55;25.55;;;13.45;;
14603;SDS011;7388;51.078;13.740;2022-12-18T15:29:21;21.63;;;12.20;;
14603;SDS011;7388;51.078;13.740;2022-12-18T15:31:58;22.98;;;11.77;;
14603;SDS011;7388;51.078;13.740;2022-12-18T15:34:24;25.75;;;14.18;;
14603;SDS011;7388;51.078;13.740;2022-12-18T15:36:51;26.92;;;12.20;;
14603;SDS011;7388;51.078;13.740;2022-12-18T15:39:17;25.13;;;13.30;;
14603;SDS011;7388;51.078;13.740;2022-12-18T15:41:42;35.50;;;15.30;;
14603;SDS011;7388;51.078;13.740;2022-12-18T15:44:28;25.48;;;12.98;;
14603;SDS011;7388;51.078;13.740;2022-12-18T15:46:54;24.70;;;14.33;;
14603;SDS011;7388;51.078;13.740;2022-12-18T15:49:20;24.83;;;12.60;;
14603;SDS011;7388;51.078;13.740;2022-12-18T15:51:46;22.53;;;12.23;;
14603;SDS011;7388;51.078;13.740;2022-12-18T15:54:17;25.00;;;13.05;;
14603;SDS011;7388;51.078;13.740;2022-12-18T15:57:03;21.67;;;12.38;;
14603;SDS011;7388;51.078;13.740;2022-12-18T15:59:47;21.27;;;11.52;;
14603;SDS011;7388;51.078;13.740;2022-12-18T16:02:14;25.00;;;14.00;;
14603;SDS011;7388;51.078;13.740;2022-12-18T16:04:43;25.38;;;14.95;;
14603;SDS011;7388;51.078;13.740;2022-12-18T16:07:09;18.87;;;12.53;;
14603;SDS011;7388;51.078;13.740;2022-12-18T16:09:34;33.37;;;15.10;;
14603;SDS011;7388;51.078;13.740;2022-12-18T16:12:01;26.42;;;13.70;;
14603;SDS011;7388;51.078;13.740;2022-12-18T16:14:28;24.20;;;14.17;;
14603;SDS011;7388;51.078;13.740;2022-12-18T16:16:56;18.27;;;11.93;;
14603;SDS011;7388;51.078;13.740;2022-12-18T16:19:24;28.50;;;15.75;;
14603;SDS011;7388;51.078;13.740;2022-12-18T16:21:51;26.45;;;12.68;;
14603;SDS011;7388;51.078;13.740;2022-12-18T16:24:20;26.73;;;13.60;;
14603;SDS011;7388;51.078;13.740;2022-12-18T16:26:48;30.45;;;14.50;;
14603;SDS011;7388;51.078;13.740;2022-12-18T16:29:16;22.35;;;14.23;;